Gilbert Plains, Canada
Current Conditions -  °F | °C
As of 4:00 AM on Sunday 23 Nov 2014 (Local Time) from CYQV Reporting Station
Light Snow Light Snow  
Wind Chill: -21°   Ceiling: 1800
Heat Index: -11°   Visibility: 1.2mi
Dew Point: -13°   Wind: 20mph
Humidity: 85%   Direction: 10°N
Pressure: 29.41"   Gusts: 25mph
Location:  51.13°N, 100.48°W
Report Text: CYQV 231000Z AUTO 01017G22KT 1 1/4SM -SN OVC018 M11/M13 A2941 RMK SLP991
Loading
Personal Weather Stations






























Interactive Weather Map New forecast layout! Learn more

10-Day Weather Forecast

Advertisements
Track Severe Weather on mobile